Heat Index [SAI AWOS/ASOS Display]_________FAA Disclaimer: "Not for use in aviation at this time______________" Untitled Document
Auglaize County Neil Armstrong Airport (AXV)
180
12:10
17/03/24
12
20
N/A
30.13
N/A
912
53(F), 12(C)
34(F), 1(C)
49 F
47%
CLR
7
N/A
N/A
N/A
12:10 zulu Wind 180 at 12 Knots, Gusting 20 Knots, Altimeter 30.13
METAR KAXV 241210Z AUTO 18012G20KT 7SM CLR 12/01 A3013 A02
METAR:
FAA Disclaimer--Advisory Use ONLY, not for flight info-- 3/04/2009: Welcome to the Neil Armstong AXV Graphical AWOS Display, if you find this information useful, please call the airport manager at 419-753-2810. New URL for AWOS smartphone display is http://www.saiawos2.com/AXV
INFO:
Wind Direction:
Wind Speed:
Wind Gust:
Wind Variable:
Altimeter:
Dens Alt:
Elev:
Temp:
Dwpt:
Wind Chill
Rel Humidity:
Ceiling:
Visibility:
Prsnt Wea:
PCPN:
Remarks:
How to read the WebPage